Time;durP1;ratioP1;P1;durP2;ratioP2;P2;SDS_P1;SDS_P2;PMS_P1;PMS_P2;Temp;Humidity;BMP_temperature;BMP_pressure;BME280_temperature;BME280_humidity;BME280_pressure;Samples;Min_cycle;Max_cycle;Signal;HPM_P1;HPM_P2
2021/10/10 00:01:30;;;;;;;39.15;21.38;;;;;;;1.47;91.30;101218.78;4954611;29;20047;-86
2021/10/10 00:04:15;;;;;;;34.75;17.70;;;;;;;1.53;91.70;101237.94;4969025;29;20424;-85
2021/10/10 00:07:00;;;;;;;30.42;18.30;;;;;;;1.79;91.19;101285.31;4955174;29;20039;-84
2021/10/10 00:09:44;;;;;;;35.22;18.55;;;;;;;1.43;91.86;101235.88;4956058;29;20095;-85
2021/10/10 00:12:29;;;;;;;37.70;19.77;;;;;;;1.43;91.72;101232.38;4955733;29;20066;-85
2021/10/10 00:15:16;;;;;;;39.72;19.63;;;;;;;1.49;91.96;101235.19;4969461;29;20047;-85
2021/10/10 00:18:00;;;;;;;36.95;17.95;;;;;;;1.69;91.04;101295.25;4970030;29;20123;-85
2021/10/10 00:20:46;;;;;;;37.42;19.30;;;;;;;1.49;91.72;101282.53;4955958;29;20049;-84
2021/10/10 00:23:30;;;;;;;34.80;17.60;;;;;;;1.29;91.73;101231.91;4957173;29;20108;-84
2021/10/10 00:26:15;;;;;;;31.58;17.77;;;;;;;1.44;92.24;101255.69;4958826;29;20408;-85
2021/10/10 00:29:00;;;;;;;30.30;17.33;;;;;;;1.28;92.17;101254.28;4958939;29;20053;-85
2021/10/10 00:31:45;;;;;;;36.67;19.40;;;;;;;1.37;92.26;101259.75;4961162;29;20071;-85
2021/10/10 00:34:30;;;;;;;32.13;18.50;;;;;;;1.41;92.39;101268.50;4948197;29;20051;-84
2021/10/10 00:37:17;;;;;;;32.97;18.35;;;;;;;1.28;92.73;101241.38;4962005;29;20074;-84
2021/10/10 00:40:03;;;;;;;32.92;18.02;;;;;;;1.30;92.65;101244.88;4946916;29;20066;-85
2021/10/10 00:42:52;;;;;;;33.33;18.77;;;;;;;1.24;92.67;101241.22;4976099;29;20067;-84
2021/10/10 00:45:37;;;;;;;36.63;21.05;;;;;;;1.36;92.60;101263.16;4962561;29;20067;-85
2021/10/10 00:48:23;;;;;;;35.40;18.20;;;;;;;1.29;92.71;101237.94;4961869;29;20050;-84
2021/10/10 00:51:18;;;;;;;33.67;19.10;;;;;;;1.08;92.73;101211.41;4977000;29;20045;-84
2021/10/10 00:54:04;;;;;;;31.50;18.52;;;;;;;1.14;92.84;101235.72;4976682;29;20047;-85
2021/10/10 00:56:52;;;;;;;37.72;18.17;;;;;;;1.42;93.36;101279.69;4963317;29;20043;-85
2021/10/10 00:59:45;;;;;;;33.83;18.60;;;;;;;0.99;93.45;101209.34;4975624;29;20110;-84
2021/10/10 01:02:36;;;;;;;33.55;18.60;;;;;;;1.23;93.27;101247.19;4964255;29;20065;-84
2021/10/10 01:05:23;;;;;;;31.48;18.48;;;;;;;1.11;92.89;101221.84;4964593;29;20051;-84
2021/10/10 01:08:08;;;;;;;29.55;17.60;;;;;;;1.12;92.84;101237.34;4964670;29;20046;-85
2021/10/10 01:11:13;;;;;;;31.25;17.58;;;;;;;0.76;92.80;101193.03;4964862;29;20063;-84
2021/10/10 01:14:20;;;;;;;33.47;19.30;;;;;;;1.01;92.92;101250.69;4980977;29;20079;-83
2021/10/10 01:17:36;;;;;;;38.95;20.83;;;;;;;0.74;93.44;101202.41;4971195;28;20062;-84
2021/10/10 01:20:45;;;;;;;35.75;19.40;;;;;;;0.70;93.21;101216.91;4967933;28;20035;-83
2021/10/10 01:23:33;;;;;;;31.48;16.58;;;;;;;0.49;93.69;101212.63;4980468;29;20047;-83
2021/10/10 01:26:44;;;;;;;36.15;18.15;;;;;;;0.44;94.31;101174.66;4979364;29;20051;-82
2021/10/10 01:29:45;;;;;;;33.85;18.33;;;;;;;0.68;94.43;101226.31;4966803;29;20468;-83
2021/10/10 01:33:31;;;;;;;35.13;18.65;;;;;;;0.56;93.23;101214.66;4969795;28;20184;-82
2021/10/10 01:41:33;;;;;;;31.27;17.77;;;;;;;0.47;93.22;101231.50;4981495;28;20050;-82
2021/10/10 01:53:24;;;;;;;34.50;17.70;;;;;;;0.21;93.34;101220.19;4965819;28;20050;-81
2021/10/10 02:01:29;;;;;;;34.08;17.50;;;;;;;0.02;94.29;101214.25;4979559;28;20038;-82
2021/10/10 02:04:51;;;;;;;36.03;19.00;;;;;;;-0.11;94.60;101181.97;4964836;28;20042;-81
2021/10/10 02:12:44;;;;;;;32.13;17.42;;;;;;;-0.05;94.16;101215.72;4985546;28;20074;-81
2021/10/10 02:16:15;;;;;;;36.20;18.13;;;;;;;0.16;95.14;101229.47;4998187;28;20058;-81
2021/10/10 02:19:23;;;;;;;34.05;18.05;;;;;;;-0.17;96.06;101168.84;4971967;28;20146;-81
2021/10/10 02:22:37;;;;;;;34.88;18.65;;;;;;;0.20;96.64;101235.59;4986442;28;20065;-81
2021/10/10 02:26:05;;;;;;;34.17;18.10;;;;;;;-0.38;95.57;101140.56;5010208;28;20045;-82
2021/10/10 02:29:20;;;;;;;32.42;17.75;;;;;;;-0.05;96.31;101198.56;4942802;28;20081;-82
2021/10/10 02:33:17;;;;;;;29.40;16.27;;;;;;;-0.27;96.54;101159.88;4978366;28;20031;-81
2021/10/10 02:37:26;;;;;;;31.80;17.30;;;;;;;-0.23;96.73;101166.91;4979803;28;20042;-82
2021/10/10 02:41:25;;;;;;;35.40;17.48;;;;;;;0.06;95.60;101226.44;4922422;29;20116;-81
2021/10/10 02:44:43;;;;;;;40.95;20.73;;;;;;;-0.20;96.45;101192.78;4922621;29;20068;-82
2021/10/10 02:47:51;;;;;;;41.30;19.90;;;;;;;-0.37;96.75;101157.75;4938150;29;20059;-81
2021/10/10 02:50:56;;;;;;;37.55;18.77;;;;;;;-0.34;96.09;101163.91;4894250;29;20036;-81
2021/10/10 02:55:02;;;;;;;41.88;20.42;;;;;;;-0.42;95.58;101160.16;4910408;28;20036;-82
2021/10/10 02:58:23;;;;;;;43.08;21.38;;;;;;;-0.45;96.82;101152.31;4866458;29;20053;-81
2021/10/10 03:01:46;;;;;;;35.90;19.50;;;;;;;-0.63;96.94;101118.06;4857143;29;20115;-81
2021/10/10 03:05:11;;;;;;;40.92;19.23;;;;;;;-0.44;96.70;101146.31;4829614;29;20289;-82
2021/10/10 03:08:21;;;;;;;36.92;19.35;;;;;;;-0.25;96.67;101173.69;4829673;29;20039;-81
2021/10/10 03:12:06;;;;;;;34.50;17.75;;;;;;;-0.10;97.04;101199.19;4840583;29;20035;-81
2021/10/10 03:15:26;;;;;;;34.83;20.67;;;;;;;-0.45;97.71;101138.56;4833367;29;20059;-80
2021/10/10 03:24:12;;;;;;;36.33;20.10;;;;;;;-0.49;97.81;101130.72;4806120;29;20038;-81
2021/10/10 03:31:20;;;;;;;32.22;19.38;;;;;;;-0.51;97.66;101124.59;4884548;29;20117;-81
2021/10/10 03:34:31;;;;;;;32.50;18.27;;;;;;;-0.40;98.49;101148.19;4869004;29;20052;-81
2021/10/10 03:37:46;;;;;;;34.58;17.98;;;;;;;-0.45;98.01;101128.25;4884940;29;20057;-81
2021/10/10 03:41:24;;;;;;;38.88;20.10;;;;;;;-0.62;98.07;101094.97;4881387;29;20034;-81
2021/10/10 03:44:23;;;;;;;37.75;20.33;;;;;;;-0.32;97.75;101140.81;4859133;29;20062;-81
2021/10/10 03:47:48;;;;;;;36.08;19.88;;;;;;;-0.30;98.40;101158.03;4884254;29;20105;-81
2021/10/10 03:51:33;;;;;;;34.13;18.98;;;;;;;-0.75;98.81;101075.59;4885549;29;20029;-81
2021/10/10 03:55:37;;;;;;;39.08;20.08;;;;;;;-0.63;98.06;101105.22;4897973;29;20037;-82
2021/10/10 03:59:08;;;;;;;37.63;20.73;;;;;;;-0.79;98.27;101071.13;4883641;29;20052;-81
2021/10/10 04:02:47;;;;;;;38.35;19.33;;;;;;;-0.52;99.14;101111.66;4884550;29;20037;-81
2021/10/10 04:06:07;;;;;;;34.80;19.95;;;;;;;-0.37;98.97;101108.81;4884312;29;20057;-81
2021/10/10 04:09:31;;;;;;;36.40;21.00;;;;;;;-0.24;99.23;101129.97;4921830;29;20052;-81
2021/10/10 04:12:59;;;;;;;38.17;21.20;;;;;;;-0.34;99.13;101112.41;4921532;29;20059;-81
2021/10/10 04:16:13;;;;;;;;;;;;;;;0.03;99.31;101156.75;4939537;29;20052;-81
2021/10/10 04:19:31;;;;;;;35.60;19.77;;;;;;;-0.52;99.15;101078.19;4925031;29;19907;-81
2021/10/10 04:22:28;;;;;;;36.20;18.98;;;;;;;-0.26;99.37;101123.91;4924715;29;20036;-81
2021/10/10 04:25:53;;;;;;;36.55;20.88;;;;;;;-0.20;99.49;101112.94;4944220;29;20095;-81
2021/10/10 04:28:55;;;;;;;36.65;19.48;;;;;;;-0.40;98.79;101088.09;4905667;29;20040;-82
2021/10/10 04:31:49;;;;;;;37.15;20.95;;;;;;;-0.40;98.94;101077.81;4921146;29;20055;-82
2021/10/10 04:34:51;;;;;;;41.63;22.05;;;;;;;-0.24;98.72;101106.78;4925194;29;20113;-82
2021/10/10 04:38:24;;;;;;;35.63;20.38;;;;;;;-0.50;99.02;101069.72;4884395;29;20061;-81
2021/10/10 04:41:19;;;;;;;34.80;18.83;;;;;;;-0.58;98.78;101047.09;4905983;29;20036;-81
2021/10/10 04:44:30;;;;;;;42.45;21.02;;;;;;;-0.56;98.64;101069.47;4868769;29;20038;-81
2021/10/10 04:48:09;;;;;;;37.80;20.85;;;;;;;-0.35;99.01;101110.66;4858188;29;20038;-81
2021/10/10 04:51:31;;;;;;;36.80;21.55;;;;;;;-0.33;99.79;101110.69;4902452;29;20065;-81
2021/10/10 04:58:32;;;;;;;40.05;21.40;;;;;;;-0.19;99.73;101119.88;4900468;29;20056;-82
2021/10/10 05:02:33;;;;;;;39.38;23.33;;;;;;;-0.47;98.41;101079.28;4903840;29;20053;-82
2021/10/10 05:05:34;;;;;;;38.05;20.98;;;;;;;-0.54;98.54;101074.69;4875024;29;20037;-81
2021/10/10 05:09:04;;;;;;;45.45;24.42;;;;;;;-0.29;98.68;101108.31;4906213;29;20056;-81
2021/10/10 05:12:33;;;;;;;51.65;26.30;;;;;;;-0.56;98.55;101084.91;4947341;28;20063;-81
2021/10/10 05:17:08;;;;;;;47.15;24.70;;;;;;;-0.52;98.54;101091.06;4942519;29;20048;-81
2021/10/10 05:20:51;;;;;;;45.05;23.08;;;;;;;-0.19;98.71;101160.19;4886506;29;20044;-81
2021/10/10 05:23:59;;;;;;;45.35;24.20;;;;;;;-0.41;98.84;101117.25;4886676;29;20045;-81
2021/10/10 05:31:49;;;;;;;40.85;22.40;;;;;;;-0.42;98.73;101102.59;4870977;29;20061;-81
2021/10/10 05:35:19;;;;;;;41.53;25.23;;;;;;;-0.25;99.30;101124.78;4884637;29;20033;-81
2021/10/10 05:38:27;;;;;;;42.10;21.42;;;;;;;-0.23;98.72;101115.38;4870972;29;20053;-81
2021/10/10 05:42:13;;;;;;;38.03;21.50;;;;;;;-0.56;98.52;101054.03;4880873;29;20089;-81
2021/10/10 05:46:05;;;;;;;37.95;21.60;;;;;;;0.09;98.95;101147.56;4886423;29;20065;-80
2021/10/10 05:49:10;;;;;;;37.17;20.38;;;;;;;-0.21;98.42;101088.00;4882778;29;20049;-81
2021/10/10 05:53:15;;;;;;;40.47;23.35;;;;;;;0.24;98.56;101142.13;4884810;29;20093;-81
2021/10/10 05:56:17;;;;;;;33.08;18.63;;;;;;;-0.14;97.89;101060.78;4895261;29;20112;-81
2021/10/10 05:59:40;;;;;;;37.37;19.80;;;;;;;0.23;97.74;101112.91;4942103;29;20084;-81
2021/10/10 06:03:02;;;;;;;36.50;21.70;;;;;;;0.62;97.32;101140.09;4900732;29;20038;-81
2021/10/10 06:06:04;;;;;;;;;;;;;;;0.77;96.67;101137.19;4942589;29;20056;-81
2021/10/10 06:09:15;;;;;;;44.88;23.08;;;;;;;0.85;96.56;101128.91;4941627;29;19906;-82
2021/10/10 06:12:22;;;;;;;41.65;23.45;;;;;;;0.92;95.28;101099.03;4937975;29;20542;-85
2021/10/10 06:15:08;;;;;;;37.35;22.02;;;;;;;1.33;95.33;101144.31;4932356;29;20059;-84
2021/10/10 06:17:53;;;;;;;37.65;21.67;;;;;;;0.93;94.10;101068.09;4934639;29;20055;-85
2021/10/10 06:20:37;;;;;;;43.72;23.35;;;;;;;1.52;93.39;101148.34;4933697;29;20083;-83
2021/10/10 06:23:22;;;;;;;35.72;19.90;;;;;;;1.53;93.42;101123.44;4961373;28;20053;-85
2021/10/10 06:26:06;;;;;;;40.13;21.60;;;;;;;1.49;93.39;101077.66;4973489;28;20460;-83
2021/10/10 06:28:51;;;;;;;47.17;26.08;;;;;;;1.72;91.96;101104.22;4971885;28;20047;-86
2021/10/10 06:31:36;;;;;;;44.05;22.88;;;;;;;2.13;91.96;101139.09;4974278;28;20058;-84
2021/10/10 06:34:21;;;;;;;41.45;23.05;;;;;;;2.08;91.43;101131.19;4988812;28;20043;-86
2021/10/10 06:37:05;;;;;;;40.78;22.55;;;;;;;2.32;90.97;101153.44;4989245;28;20117;-85
2021/10/10 06:39:50;;;;;;;39.95;22.48;;;;;;;2.38;90.72;101140.69;4963310;28;20049;-84
2021/10/10 06:42:35;;;;;;;34.65;19.35;;;;;;;2.28;89.65;101098.19;4988577;28;20058;-83
2021/10/10 06:45:20;;;;;;;34.47;20.30;;;;;;;2.52;89.21;101129.03;4975814;28;20046;-84
2021/10/10 06:48:05;;;;;;;36.30;21.38;;;;;;;2.62;88.69;101085.31;4989107;28;20043;-84
2021/10/10 06:50:49;;;;;;;38.08;22.58;;;;;;;2.79;88.56;101135.81;4990697;28;20352;-83
2021/10/10 06:53:34;;;;;;;40.20;22.50;;;;;;;2.95;88.42;101126.75;4974399;28;20057;-85
2021/10/10 06:56:19;;;;;;;39.75;22.30;;;;;;;3.02;87.72;101118.31;4958927;28;20058;-82
2021/10/10 06:59:03;;;;;;;40.78;22.05;;;;;;;3.23;88.25;101121.47;4972963;28;20078;-85
2021/10/10 07:01:48;;;;;;;37.53;20.98;;;;;;;3.20;87.15;101094.63;4971328;28;20122;-85
2021/10/10 07:04:33;;;;;;;42.33;22.33;;;;;;;3.51;86.33;101104.03;4964522;28;20059;-86
2021/10/10 07:07:18;;;;;;;41.03;22.20;;;;;;;3.49;85.20;101091.03;4964038;28;20094;-85
2021/10/10 07:10:04;;;;;;;35.35;20.33;;;;;;;3.99;84.61;101108.59;4963866;28;20114;-87
2021/10/10 07:12:49;;;;;;;37.53;20.35;;;;;;;4.29;83.95;101129.16;4977667;28;20042;-86
2021/10/10 07:15:34;;;;;;;41.88;22.88;;;;;;;4.66;83.19;101129.91;4963179;28;20046;-86
2021/10/10 07:18:25;;;;;;;33.25;20.25;;;;;;;4.88;81.46;101095.72;4977460;28;20043;-86
2021/10/10 07:21:22;;;;;;;31.67;18.58;;;;;;;5.21;79.70;101101.50;4965756;28;20070;-83
2021/10/10 07:24:54;;;;;;;35.83;19.35;;;;;;;5.47;76.99;101097.59;4977860;28;20042;-87
2021/10/10 07:27:12;;;;;;;36.85;19.33;;;;;;;6.00;76.10;101112.28;4976693;28;20047;-87
2021/10/10 07:29:57;;;;;;;32.00;20.00;;;;;;;6.33;73.37;101123.16;4977397;28;20065;-87
2021/10/10 07:32:42;;;;;;;37.15;22.45;;;;;;;6.66;72.31;101129.66;4962993;28;20442;-88
2021/10/10 07:35:27;;;;;;;37.05;22.95;;;;;;;6.72;72.21;101092.38;4962829;28;20470;-87
2021/10/10 07:38:17;;;;;;;44.88;26.85;;;;;;;7.13;70.20;101123.22;4977059;28;20122;-88
2021/10/10 07:41:03;;;;;;;43.63;26.75;;;;;;;7.16;68.85;101125.84;4977732;28;20111;-88
2021/10/10 07:43:48;;;;;;;47.22;29.17;;;;;;;7.79;68.22;101098.53;4963220;28;20105;-88
2021/10/10 07:46:36;;;;;;;42.40;26.60;;;;;;;8.29;66.04;101116.25;4977026;28;20097;-89
2021/10/10 07:49:23;;;;;;;52.70;33.13;;;;;;;8.31;66.55;101131.91;4976368;28;20347;-88
2021/10/10 07:52:08;;;;;;;45.25;27.15;;;;;;;8.36;63.66;101107.56;4949579;28;20047;-87
2021/10/10 07:54:53;;;;;;;61.03;42.28;;;;;;;8.83;63.43;101111.25;4962970;28;20065;-88
2021/10/10 07:57:38;;;;;;;58.78;38.05;;;;;;;8.68;61.42;101104.25;4977844;28;20142;-87
2021/10/10 08:00:23;;;;;;;50.58;30.70;;;;;;;9.06;60.70;101106.94;4966443;28;20462;-88
2021/10/10 08:03:08;;;;;;;47.78;30.77;;;;;;;9.34;61.21;101120.94;4966871;28;20486;-88
2021/10/10 08:05:53;;;;;;;50.05;30.75;;;;;;;9.50;60.51;101116.59;4966181;28;20100;-89
2021/10/10 08:08:38;;;;;;;45.97;28.08;;;;;;;9.38;60.36;101120.94;4966644;28;20046;-89
2021/10/10 08:11:23;;;;;;;53.33;30.55;;;;;;;9.66;59.15;101124.44;4966627;28;20043;-88
2021/10/10 08:14:08;;;;;;;48.13;28.92;;;;;;;10.01;59.27;101108.69;4966196;28;20348;-90
2021/10/10 08:16:53;;;;;;;44.85;29.02;;;;;;;10.19;58.95;101118.25;4980466;28;20039;-91
2021/10/10 08:19:38;;;;;;;51.03;30.92;;;;;;;10.29;57.18;101105.13;4980361;28;20039;-90
2021/10/10 08:22:23;;;;;;;50.40;30.30;;;;;;;10.56;56.89;101105.03;4965987;28;20073;-90
2021/10/10 08:25:13;;;;;;;44.28;28.48;;;;;;;10.49;55.61;101112.06;4966405;28;20128;-88
2021/10/10 08:27:58;;;;;;;39.70;24.42;;;;;;;11.38;55.09;101120.28;4980197;28;20039;-88
2021/10/10 08:30:43;;;;;;;36.85;24.95;;;;;;;10.66;54.55;101105.00;4965778;28;20050;-87
2021/10/10 08:33:28;;;;;;;32.70;21.60;;;;;;;10.77;55.31;101091.84;4980641;28;20053;-90
2021/10/10 08:36:13;;;;;;;31.38;19.95;;;;;;;11.04;53.95;101101.28;4965980;28;20047;-90
2021/10/10 08:38:57;;;;;;;26.23;17.13;;;;;;;11.58;53.33;101093.88;4980000;28;20078;-90
2021/10/10 08:41:44;;;;;;;33.25;19.38;;;;;;;11.59;52.85;101094.75;4952672;28;20050;-87
2021/10/10 08:44:34;;;;;;;29.58;18.25;;;;;;;12.02;52.11;101102.22;4979857;28;20097;-88
2021/10/10 08:47:21;;;;;;;30.77;18.98;;;;;;;11.64;52.42;101098.22;4965534;28;20380;-87
2021/10/10 08:50:16;;;;;;;27.05;17.98;;;;;;;12.23;51.83;101094.13;4979811;28;20432;-90
2021/10/10 08:53:01;;;;;;;30.90;18.50;;;;;;;12.35;51.02;101085.25;4980320;28;20125;-86
2021/10/10 08:55:45;;;;;;;28.95;17.17;;;;;;;12.75;49.38;101084.72;4965585;28;20097;-90
2021/10/10 08:58:36;;;;;;;28.60;19.02;;;;;;;12.94;49.06;101087.97;4965917;28;20043;-87
2021/10/10 09:01:28;;;;;;;33.33;17.85;;;;;;;12.81;49.39;101088.13;4965337;28;20047;-88
2021/10/10 09:04:13;;;;;;;31.20;18.60;;;;;;;12.42;50.85;101096.56;4978964;28;20094;-90
2021/10/10 09:06:59;;;;;;;25.05;17.23;;;;;;;12.98;50.11;101090.50;4979935;28;20043;-89
2021/10/10 09:09:43;;;;;;;28.20;18.30;;;;;;;13.06;48.58;101080.75;4979110;28;20067;-87
2021/10/10 09:12:27;;;;;;;24.10;15.65;;;;;;;13.24;48.86;101082.25;4979718;28;20043;-86
2021/10/10 09:15:16;;;;;;;23.98;15.70;;;;;;;12.86;49.24;101085.41;4965628;28;20419;-88
2021/10/10 09:18:02;;;;;;;24.52;15.55;;;;;;;14.14;47.92;101081.56;4965088;28;20098;-86
2021/10/10 09:20:47;;;;;;;21.77;13.15;;;;;;;13.29;45.71;101082.16;4965525;28;20408;-88
2021/10/10 09:23:33;;;;;;;20.58;13.35;;;;;;;13.66;46.21;101073.69;4965507;28;20060;-88
2021/10/10 09:26:19;;;;;;;21.40;13.02;;;;;;;13.36;45.63;101075.94;4964890;28;20117;-88
2021/10/10 09:29:04;;;;;;;20.50;12.18;;;;;;;13.94;45.19;101074.00;4963486;28;20043;-87
2021/10/10 09:31:48;;;;;;;20.08;13.07;;;;;;;13.38;45.40;101066.22;4978931;28;20062;-87
2021/10/10 09:34:34;;;;;;;25.98;11.35;;;;;;;14.37;44.01;101052.09;4963890;28;20101;-88
2021/10/10 09:37:34;;;;;;;18.35;9.70;;;;;;;14.11;44.44;101056.13;4963959;28;20047;-89
2021/10/10 09:40:29;;;;;;;17.58;11.35;;;;;;;14.51;41.34;101051.84;4977611;28;20043;-87
2021/10/10 09:43:14;;;;;;;16.88;9.70;;;;;;;14.57;42.06;101046.44;4978773;28;20498;-89
2021/10/10 09:45:59;;;;;;;19.02;9.85;;;;;;;14.29;41.02;101033.81;4978834;28;20042;-89
2021/10/10 09:48:43;;;;;;;14.98;8.80;;;;;;;14.52;41.02;101040.38;4962625;28;20100;-90
2021/10/10 09:51:33;;;;;;;17.50;10.90;;;;;;;14.69;38.71;101041.75;4976767;28;20403;-88
2021/10/10 09:54:19;;;;;;;16.55;9.55;;;;;;;15.08;40.52;101031.19;4976713;28;20046;-89
2021/10/10 09:57:08;;;;;;;12.40;8.63;;;;;;;15.07;38.48;101034.72;4962352;28;20101;-88
2021/10/10 09:59:53;;;;;;;13.88;9.20;;;;;;;14.89;39.57;101027.25;4948690;28;20042;-89
2021/10/10 10:02:42;;;;;;;15.88;8.68;;;;;;;14.79;36.18;101026.59;4962369;28;20047;-89
2021/10/10 10:05:29;;;;;;;17.08;8.48;;;;;;;15.10;39.04;101031.13;4962399;28;20105;-89
2021/10/10 10:08:13;;;;;;;12.60;8.02;;;;;;;15.37;36.60;101021.66;4963406;28;20105;-88
2021/10/10 10:10:58;;;;;;;16.58;7.45;;;;;;;15.01;35.91;101012.88;4978863;28;20039;-90
2021/10/10 10:13:43;;;;;;;18.60;7.40;;;;;;;14.97;34.59;101020.00;4978859;28;20043;-90
2021/10/10 10:16:30;;;;;;;15.70;7.57;;;;;;;14.80;34.21;100998.44;4964197;28;20046;-87
2021/10/10 10:19:26;;;;;;;18.33;9.95;;;;;;;15.13;34.69;101020.50;4950736;28;20046;-88
2021/10/10 10:22:11;;;;;;;16.65;7.68;;;;;;;15.30;34.63;100998.97;4949603;28;20071;-89
2021/10/10 10:24:58;;;;;;;17.65;10.55;;;;;;;15.12;35.99;101014.38;4978013;28;20049;-89
2021/10/10 10:27:42;;;;;;;17.45;9.85;;;;;;;15.57;36.82;101019.38;4964226;28;20047;-88
2021/10/10 10:30:29;;;;;;;13.93;6.28;;;;;;;14.75;35.53;101024.91;4963553;28;20055;-89
2021/10/10 10:33:13;;;;;;;17.98;7.20;;;;;;;15.08;35.62;101010.06;4963920;28;20114;-88
2021/10/10 10:35:58;;;;;;;12.63;7.10;;;;;;;14.99;34.72;101014.72;4963692;28;20347;-88
2021/10/10 10:38:47;;;;;;;13.20;6.93;;;;;;;15.03;34.96;101014.59;4950625;28;20050;-88
2021/10/10 10:41:50;;;;;;;45.58;23.50;;;;;;;15.40;35.37;101017.19;4963562;28;20043;-89
2021/10/10 10:44:43;;;;;;;45.20;22.47;;;;;;;15.10;35.13;101016.16;4977954;28;20053;-85
2021/10/10 10:47:39;;;;;;;22.80;12.35;;;;;;;15.64;34.73;100994.53;4977702;28;20274;-88
2021/10/10 10:50:44;;;;;;;19.00;11.52;;;;;;;15.45;33.83;101009.13;4963446;28;20046;-89
2021/10/10 10:53:28;;;;;;;20.77;10.05;;;;;;;15.41;36.20;100997.78;4977667;28;20046;-87
2021/10/10 10:56:25;;;;;;;15.05;7.20;;;;;;;15.29;35.00;101003.38;4963296;28;20384;-87
2021/10/10 10:59:10;;;;;;;16.20;8.82;;;;;;;15.59;35.13;100993.78;4949721;28;20449;-86
2021/10/10 11:01:59;;;;;;;10.60;6.57;;;;;;;15.57;33.74;101007.94;4963770;28;20047;-87
2021/10/10 11:05:03;;;;;;;15.48;8.07;;;;;;;15.22;34.06;100982.47;4963469;28;20038;-85
2021/10/10 11:07:50;;;;;;;12.75;7.55;;;;;;;15.57;36.04;100987.69;4963374;28;20097;-88
2021/10/10 11:10:37;;;;;;;10.80;6.25;;;;;;;15.30;34.59;100988.41;4949773;28;20142;-88
2021/10/10 11:13:23;;;;;;;15.40;6.20;;;;;;;14.99;34.04;100986.56;4977667;28;20049;-87
2021/10/10 11:16:26;;;;;;;13.07;6.53;;;;;;;15.53;34.88;100988.66;4950015;28;20047;-86
2021/10/10 11:19:12;;;;;;;12.35;6.03;;;;;;;15.84;32.34;100986.09;4949428;28;20039;-87
2021/10/10 11:21:57;;;;;;;9.30;6.15;;;;;;;15.11;33.27;100980.97;4963551;28;20046;-87
2021/10/10 11:24:46;;;;;;;9.13;6.07;;;;;;;14.65;33.63;100989.97;4962903;28;20396;-87
2021/10/10 11:27:32;;;;;;;17.08;10.60;;;;;;;14.97;34.78;100975.16;4949704;28;20053;-87
2021/10/10 11:30:17;;;;;;;16.40;9.93;;;;;;;15.23;33.38;100973.63;4962713;28;20097;-87
2021/10/10 11:33:01;;;;;;;15.02;8.75;;;;;;;14.97;33.21;100977.81;4979504;28;20043;-88
2021/10/10 11:35:46;;;;;;;12.63;7.13;;;;;;;15.37;32.70;100974.13;4966807;28;20046;-86
2021/10/10 11:38:55;;;;;;;13.85;7.32;;;;;;;15.03;33.14;100969.75;4980987;28;20051;-88
2021/10/10 11:41:42;;;;;;;12.40;6.78;;;;;;;15.03;33.86;100974.16;4980895;28;20113;-85
2021/10/10 11:44:35;;;;;;;12.63;7.18;;;;;;;15.05;34.27;100959.16;4966580;28;20090;-85
2021/10/10 11:47:26;;;;;;;11.63;5.45;;;;;;;14.87;34.61;100965.75;4980909;28;20053;-86
2021/10/10 11:50:11;;;;;;;9.52;6.18;;;;;;;14.71;33.44;100958.19;4980901;28;20066;-87
2021/10/10 11:53:00;;;;;;;16.70;6.68;;;;;;;14.73;34.99;100960.81;4966580;28;20047;-88
2021/10/10 11:55:44;;;;;;;12.82;6.95;;;;;;;15.11;33.93;100951.06;4966525;28;20050;-87
2021/10/10 11:58:31;;;;;;;11.25;6.10;;;;;;;14.48;34.67;100949.94;4952988;28;20419;-87
2021/10/10 12:01:16;;;;;;;14.98;7.28;;;;;;;15.09;34.93;100952.91;4966437;28;20402;-88
2021/10/10 12:04:00;;;;;;;14.30;6.78;;;;;;;15.26;34.63;100937.47;4953450;28;20042;-87
2021/10/10 12:06:47;;;;;;;10.35;5.63;;;;;;;14.80;34.74;100946.56;4966831;28;20499;-85
2021/10/10 12:09:32;;;;;;;20.35;8.57;;;;;;;14.53;34.38;100940.19;4966201;28;20444;-88
2021/10/10 12:12:19;;;;;;;14.32;6.90;;;;;;;14.61;33.87;100943.50;4966708;28;20043;-88
2021/10/10 12:15:04;;;;;;;12.73;7.07;;;;;;;14.45;35.37;100932.41;4966783;28;20050;-88
2021/10/10 12:17:53;;;;;;;15.15;7.80;;;;;;;14.65;35.85;100923.19;4966401;28;20043;-87
2021/10/10 12:20:37;;;;;;;17.55;9.13;;;;;;;14.63;35.53;100923.25;4966291;28;20428;-87
2021/10/10 12:23:27;;;;;;;13.07;6.97;;;;;;;14.41;35.16;100909.69;4963565;28;20050;-87
2021/10/10 12:26:11;;;;;;;14.18;5.97;;;;;;;14.13;35.25;100904.16;4965877;28;20043;-88
2021/10/10 12:28:55;;;;;;;35.25;13.73;;;;;;;14.32;35.70;100911.66;4952508;28;20494;-87
2021/10/10 12:31:40;;;;;;;19.08;7.93;;;;;;;14.40;36.45;100899.19;4979486;28;20431;-90
2021/10/10 12:34:29;;;;;;;23.92;10.23;;;;;;;14.09;37.16;100906.91;4980658;28;20070;-88
2021/10/10 12:37:17;;;;;;;10.27;6.18;;;;;;;14.04;36.00;100914.94;4980405;28;20039;-89
2021/10/10 12:40:03;;;;;;;24.88;9.40;;;;;;;14.06;35.78;100912.25;4980136;28;20418;-89
2021/10/10 12:42:49;;;;;;;16.45;7.53;;;;;;;13.92;35.79;100909.91;4949636;28;20065;-89
2021/10/10 12:45:35;;;;;;;9.80;5.63;;;;;;;13.66;36.00;100913.09;4951369;28;20039;-90
2021/10/10 12:48:21;;;;;;;45.15;15.02;;;;;;;13.96;38.35;100901.91;4965581;28;20055;-88
2021/10/10 12:51:15;;;;;;;31.38;12.63;;;;;;;13.82;36.83;100903.97;4965691;28;20065;-89
2021/10/10 12:54:17;;;;;;;35.47;11.45;;;;;;;13.46;37.76;100903.81;4980147;28;20053;-89
2021/10/10 12:57:07;;;;;;;12.38;6.70;;;;;;;13.44;38.53;100897.72;4965923;28;20050;-90
2021/10/10 13:00:03;;;;;;;14.07;6.00;;;;;;;13.57;36.87;100893.06;4951926;28;20121;-89
2021/10/10 13:02:49;;;;;;;9.40;5.32;;;;;;;13.29;37.79;100888.38;4979639;28;20081;-90
2021/10/10 13:05:33;;;;;;;29.73;15.20;;;;;;;13.14;38.28;100890.38;4965277;28;20043;-91
2021/10/10 13:08:18;;;;;;;21.88;9.55;;;;;;;13.18;38.59;100886.78;4952234;28;20105;-91
2021/10/10 13:11:05;;;;;;;15.80;7.25;;;;;;;13.10;38.68;100879.06;4952259;28;20042;-90
2021/10/10 13:13:50;;;;;;;12.63;6.10;;;;;;;13.12;39.18;100876.38;4979485;28;20038;-90
2021/10/10 13:16:34;;;;;;;12.88;6.47;;;;;;;12.88;38.53;100881.19;4965255;28;20130;-89
2021/10/10 13:19:19;;;;;;;8.80;4.95;;;;;;;12.85;37.91;100879.47;4965048;28;20420;-85
2021/10/10 13:22:05;;;;;;;13.07;4.82;;;;;;;12.90;38.26;100868.00;4964835;28;20070;-86
2021/10/10 13:24:51;;;;;;;10.75;5.20;;;;;;;12.97;37.88;100870.53;4979179;28;20049;-86
2021/10/10 13:27:36;;;;;;;9.23;5.85;;;;;;;12.82;38.73;100858.50;4979698;28;20063;-85
2021/10/10 13:30:21;;;;;;;10.48;5.10;;;;;;;12.90;39.40;100866.25;4964949;28;20134;-86
2021/10/10 13:33:05;;;;;;;10.13;6.03;;;;;;;12.83;38.89;100868.13;4979524;28;20039;-86
2021/10/10 13:35:49;;;;;;;15.50;6.93;;;;;;;12.81;39.25;100862.03;4978892;28;20043;-85
2021/10/10 13:38:35;;;;;;;11.77;5.88;;;;;;;12.75;39.12;100854.25;4965180;28;20058;-87
2021/10/10 13:41:22;;;;;;;15.23;7.05;;;;;;;12.78;38.05;100854.19;4978929;28;20049;-86
2021/10/10 13:44:06;;;;;;;8.25;5.70;;;;;;;12.53;39.12;100856.38;4979492;28;20042;-86
2021/10/10 13:46:51;;;;;;;9.48;5.63;;;;;;;12.44;39.05;100851.25;4950960;28;20351;-86
2021/10/10 13:49:43;;;;;;;11.90;5.07;;;;;;;12.49;39.26;100844.19;4964772;28;20057;-87
2021/10/10 13:52:28;;;;;;;9.80;4.97;;;;;;;12.36;38.78;100846.13;4951005;28;20049;-86
2021/10/10 13:55:12;;;;;;;19.63;9.15;;;;;;;12.40;41.00;100853.06;4964676;28;20051;-88
2021/10/10 13:57:56;;;;;;;15.45;6.80;;;;;;;12.35;39.76;100851.44;4978621;28;20050;-89
2021/10/10 14:00:46;;;;;;;15.85;8.43;;;;;;;12.31;40.13;100857.59;4964507;28;20043;-89
2021/10/10 14:03:31;;;;;;;13.60;6.78;;;;;;;12.23;38.69;100852.47;4964579;28;20046;-89
2021/10/10 14:06:15;;;;;;;16.55;6.55;;;;;;;12.07;39.71;100838.72;4950825;28;20126;-88
2021/10/10 14:09:00;;;;;;;101.68;56.35;;;;;;;12.11;41.55;100850.88;4978414;28;20122;-92
2021/10/10 14:11:44;;;;;;;25.20;11.88;;;;;;;12.01;39.42;100849.28;4978678;28;20043;-88